sensor_id;sensor_type;location;lat;lon;timestamp;P1;durP1;ratioP1;P2;durP2;ratioP2
11743;SDS011;5929;51.906;7.674;2022-12-15T00:00:03;31.52;;;17.23;;
11743;SDS011;5929;51.906;7.674;2022-12-15T00:02:48;32.38;;;17.30;;
11743;SDS011;5929;51.906;7.674;2022-12-15T00:05:34;31.15;;;16.83;;
11743;SDS011;5929;51.906;7.674;2022-12-15T00:08:18;33.10;;;17.40;;
11743;SDS011;5929;51.906;7.674;2022-12-15T00:11:03;35.33;;;18.67;;
11743;SDS011;5929;51.906;7.674;2022-12-15T00:13:47;34.58;;;18.52;;
11743;SDS011;5929;51.906;7.674;2022-12-15T00:16:32;32.72;;;17.58;;
11743;SDS011;5929;51.906;7.674;2022-12-15T00:19:16;31.42;;;16.98;;
11743;SDS011;5929;51.906;7.674;2022-12-15T00:22:02;36.05;;;17.75;;
11743;SDS011;5929;51.906;7.674;2022-12-15T00:24:47;31.95;;;18.67;;
11743;SDS011;5929;51.906;7.674;2022-12-15T00:27:34;35.03;;;17.48;;
11743;SDS011;5929;51.906;7.674;2022-12-15T00:30:19;29.95;;;17.20;;
11743;SDS011;5929;51.906;7.674;2022-12-15T00:33:07;31.20;;;17.60;;
11743;SDS011;5929;51.906;7.674;2022-12-15T00:35:51;33.33;;;16.55;;
11743;SDS011;5929;51.906;7.674;2022-12-15T00:38:37;33.03;;;18.08;;
11743;SDS011;5929;51.906;7.674;2022-12-15T00:41:08;33.80;;;17.40;;
11743;SDS011;5929;51.906;7.674;2022-12-15T00:43:35;32.95;;;16.70;;
11743;SDS011;5929;51.906;7.674;2022-12-15T00:46:03;30.42;;;17.52;;
11743;SDS011;5929;51.906;7.674;2022-12-15T00:48:48;29.10;;;15.65;;
11743;SDS011;5929;51.906;7.674;2022-12-15T00:51:15;31.15;;;17.65;;
11743;SDS011;5929;51.906;7.674;2022-12-15T00:53:43;33.50;;;16.50;;
11743;SDS011;5929;51.906;7.674;2022-12-15T00:56:28;29.80;;;15.68;;
11743;SDS011;5929;51.906;7.674;2022-12-15T00:59:13;29.55;;;16.02;;
11743;SDS011;5929;51.906;7.674;2022-12-15T01:01:58;30.88;;;17.60;;
11743;SDS011;5929;51.906;7.674;2022-12-15T01:04:42;30.80;;;17.42;;
11743;SDS011;5929;51.906;7.674;2022-12-15T01:07:26;33.03;;;16.50;;
11743;SDS011;5929;51.906;7.674;2022-12-15T01:10:12;30.98;;;16.88;;
11743;SDS011;5929;51.906;7.674;2022-12-15T01:12:58;35.28;;;16.38;;
11743;SDS011;5929;51.906;7.674;2022-12-15T01:15:46;30.35;;;15.20;;
11743;SDS011;5929;51.906;7.674;2022-12-15T01:18:33;29.05;;;16.70;;
11743;SDS011;5929;51.906;7.674;2022-12-15T01:21:18;34.00;;;16.17;;
11743;SDS011;5929;51.906;7.674;2022-12-15T01:23:44;32.38;;;15.98;;
11743;SDS011;5929;51.906;7.674;2022-12-15T01:26:13;28.30;;;15.50;;
11743;SDS011;5929;51.906;7.674;2022-12-15T01:28:39;27.73;;;15.20;;
11743;SDS011;5929;51.906;7.674;2022-12-15T01:31:09;29.48;;;15.88;;
11743;SDS011;5929;51.906;7.674;2022-12-15T01:33:37;30.75;;;15.77;;
11743;SDS011;5929;51.906;7.674;2022-12-15T01:36:07;31.58;;;17.23;;
11743;SDS011;5929;51.906;7.674;2022-12-15T01:38:38;27.98;;;16.48;;
11743;SDS011;5929;51.906;7.674;2022-12-15T01:41:05;30.00;;;16.65;;
11743;SDS011;5929;51.906;7.674;2022-12-15T01:43:37;31.02;;;16.35;;
11743;SDS011;5929;51.906;7.674;2022-12-15T01:46:06;30.25;;;16.95;;
11743;SDS011;5929;51.906;7.674;2022-12-15T01:48:34;33.00;;;16.00;;
11743;SDS011;5929;51.906;7.674;2022-12-15T01:51:10;30.33;;;16.25;;
11743;SDS011;5929;51.906;7.674;2022-12-15T01:53:42;30.05;;;16.23;;
11743;SDS011;5929;51.906;7.674;2022-12-15T01:56:15;29.58;;;15.57;;
11743;SDS011;5929;51.906;7.674;2022-12-15T01:58:44;29.42;;;15.88;;
11743;SDS011;5929;51.906;7.674;2022-12-15T02:01:14;25.45;;;14.63;;
11743;SDS011;5929;51.906;7.674;2022-12-15T02:03:41;26.63;;;16.42;;
11743;SDS011;5929;51.906;7.674;2022-12-15T02:06:12;26.02;;;15.65;;
11743;SDS011;5929;51.906;7.674;2022-12-15T02:08:40;31.67;;;16.33;;
11743;SDS011;5929;51.906;7.674;2022-12-15T02:11:18;25.73;;;14.45;;
11743;SDS011;5929;51.906;7.674;2022-12-15T02:14:05;27.70;;;15.93;;
11743;SDS011;5929;51.906;7.674;2022-12-15T02:16:37;28.60;;;15.85;;
11743;SDS011;5929;51.906;7.674;2022-12-15T02:19:20;30.50;;;16.48;;
11743;SDS011;5929;51.906;7.674;2022-12-15T02:22:11;29.27;;;16.77;;
11743;SDS011;5929;51.906;7.674;2022-12-15T02:24:56;31.42;;;16.80;;
11743;SDS011;5929;51.906;7.674;2022-12-15T02:30:28;33.95;;;15.95;;
11743;SDS011;5929;51.906;7.674;2022-12-15T02:33:09;29.40;;;16.52;;
11743;SDS011;5929;51.906;7.674;2022-12-15T02:35:46;28.77;;;16.63;;
11743;SDS011;5929;51.906;7.674;2022-12-15T02:38:28;27.92;;;16.45;;
11743;SDS011;5929;51.906;7.674;2022-12-15T02:40:56;32.63;;;16.60;;
11743;SDS011;5929;51.906;7.674;2022-12-15T02:43:24;26.10;;;15.77;;
11743;SDS011;5929;51.906;7.674;2022-12-15T02:45:54;29.77;;;16.77;;
11743;SDS011;5929;51.906;7.674;2022-12-15T02:48:33;31.20;;;16.30;;
11743;SDS011;5929;51.906;7.674;2022-12-15T02:51:16;33.75;;;16.08;;
11743;SDS011;5929;51.906;7.674;2022-12-15T02:54:10;34.08;;;18.33;;
11743;SDS011;5929;51.906;7.674;2022-12-15T02:56:55;30.23;;;17.45;;
11743;SDS011;5929;51.906;7.674;2022-12-15T02:59:31;33.83;;;17.85;;
11743;SDS011;5929;51.906;7.674;2022-12-15T03:02:08;29.77;;;17.55;;
11743;SDS011;5929;51.906;7.674;2022-12-15T03:04:37;32.70;;;17.67;;
11743;SDS011;5929;51.906;7.674;2022-12-15T03:07:07;31.45;;;17.45;;
11743;SDS011;5929;51.906;7.674;2022-12-15T03:09:34;33.92;;;17.17;;
11743;SDS011;5929;51.906;7.674;2022-12-15T03:12:02;34.10;;;17.42;;
11743;SDS011;5929;51.906;7.674;2022-12-15T03:14:29;30.92;;;17.92;;
11743;SDS011;5929;51.906;7.674;2022-12-15T03:16:56;29.65;;;17.75;;
11743;SDS011;5929;51.906;7.674;2022-12-15T03:19:26;34.70;;;18.10;;
11743;SDS011;5929;51.906;7.674;2022-12-15T03:21:53;29.15;;;17.02;;
11743;SDS011;5929;51.906;7.674;2022-12-15T03:24:20;34.13;;;17.27;;
11743;SDS011;5929;51.906;7.674;2022-12-15T03:26:47;33.88;;;18.75;;
11743;SDS011;5929;51.906;7.674;2022-12-15T03:29:14;35.10;;;18.75;;
11743;SDS011;5929;51.906;7.674;2022-12-15T03:31:41;32.30;;;18.52;;
11743;SDS011;5929;51.906;7.674;2022-12-15T03:34:08;31.38;;;18.20;;
11743;SDS011;5929;51.906;7.674;2022-12-15T03:36:36;33.60;;;18.73;;
11743;SDS011;5929;51.906;7.674;2022-12-15T03:39:03;34.00;;;19.60;;
11743;SDS011;5929;51.906;7.674;2022-12-15T03:41:30;31.65;;;18.75;;
11743;SDS011;5929;51.906;7.674;2022-12-15T03:43:57;30.73;;;17.60;;
11743;SDS011;5929;51.906;7.674;2022-12-15T03:46:24;34.80;;;19.38;;
11743;SDS011;5929;51.906;7.674;2022-12-15T03:48:52;35.72;;;18.05;;
11743;SDS011;5929;51.906;7.674;2022-12-15T03:51:19;33.65;;;18.25;;
11743;SDS011;5929;51.906;7.674;2022-12-15T03:53:47;30.67;;;17.63;;
11743;SDS011;5929;51.906;7.674;2022-12-15T03:56:14;28.00;;;17.98;;
11743;SDS011;5929;51.906;7.674;2022-12-15T03:58:41;32.13;;;17.95;;
11743;SDS011;5929;51.906;7.674;2022-12-15T04:01:09;32.08;;;17.90;;
11743;SDS011;5929;51.906;7.674;2022-12-15T04:03:36;31.20;;;17.90;;
11743;SDS011;5929;51.906;7.674;2022-12-15T04:06:03;35.75;;;17.77;;
11743;SDS011;5929;51.906;7.674;2022-12-15T04:08:30;31.55;;;17.15;;
11743;SDS011;5929;51.906;7.674;2022-12-15T04:10:58;35.03;;;18.52;;
11743;SDS011;5929;51.906;7.674;2022-12-15T04:13:25;34.75;;;17.48;;
11743;SDS011;5929;51.906;7.674;2022-12-15T04:15:52;32.95;;;18.00;;
11743;SDS011;5929;51.906;7.674;2022-12-15T04:18:19;33.50;;;18.05;;
11743;SDS011;5929;51.906;7.674;2022-12-15T04:20:46;30.45;;;18.27;;
11743;SDS011;5929;51.906;7.674;2022-12-15T04:23:13;30.65;;;18.35;;
11743;SDS011;5929;51.906;7.674;2022-12-15T04:25:39;33.10;;;17.52;;
11743;SDS011;5929;51.906;7.674;2022-12-15T04:28:25;34.38;;;17.60;;
11743;SDS011;5929;51.906;7.674;2022-12-15T04:31:11;35.63;;;18.70;;
11743;SDS011;5929;51.906;7.674;2022-12-15T04:34:00;31.38;;;18.17;;
11743;SDS011;5929;51.906;7.674;2022-12-15T04:36:47;34.90;;;20.08;;
11743;SDS011;5929;51.906;7.674;2022-12-15T04:39:35;30.50;;;17.25;;
11743;SDS011;5929;51.906;7.674;2022-12-15T04:42:23;34.75;;;19.25;;
11743;SDS011;5929;51.906;7.674;2022-12-15T04:45:10;33.13;;;18.27;;
11743;SDS011;5929;51.906;7.674;2022-12-15T04:47:58;31.90;;;18.13;;
11743;SDS011;5929;51.906;7.674;2022-12-15T04:50:45;37.13;;;18.95;;
11743;SDS011;5929;51.906;7.674;2022-12-15T04:53:29;38.95;;;20.00;;
11743;SDS011;5929;51.906;7.674;2022-12-15T04:56:14;36.60;;;18.80;;
11743;SDS011;5929;51.906;7.674;2022-12-15T04:58:58;36.42;;;19.42;;
11743;SDS011;5929;51.906;7.674;2022-12-15T05:01:47;32.92;;;18.55;;
11743;SDS011;5929;51.906;7.674;2022-12-15T05:04:32;34.28;;;19.15;;
11743;SDS011;5929;51.906;7.674;2022-12-15T05:07:16;34.72;;;19.17;;
11743;SDS011;5929;51.906;7.674;2022-12-15T05:10:02;33.55;;;18.52;;
11743;SDS011;5929;51.906;7.674;2022-12-15T05:12:47;33.60;;;18.95;;
11743;SDS011;5929;51.906;7.674;2022-12-15T05:15:31;35.08;;;19.77;;
11743;SDS011;5929;51.906;7.674;2022-12-15T05:18:18;32.83;;;19.83;;
11743;SDS011;5929;51.906;7.674;2022-12-15T05:21:03;35.13;;;19.77;;
11743;SDS011;5929;51.906;7.674;2022-12-15T05:23:47;32.38;;;18.75;;
11743;SDS011;5929;51.906;7.674;2022-12-15T05:26:32;35.03;;;18.63;;
11743;SDS011;5929;51.906;7.674;2022-12-15T05:29:16;33.95;;;19.95;;
11743;SDS011;5929;51.906;7.674;2022-12-15T05:32:01;34.17;;;19.92;;
11743;SDS011;5929;51.906;7.674;2022-12-15T05:34:30;36.53;;;20.33;;
11743;SDS011;5929;51.906;7.674;2022-12-15T05:36:59;35.75;;;19.75;;
11743;SDS011;5929;51.906;7.674;2022-12-15T05:39:27;37.55;;;20.15;;
11743;SDS011;5929;51.906;7.674;2022-12-15T05:41:54;34.13;;;19.85;;
11743;SDS011;5929;51.906;7.674;2022-12-15T05:44:22;38.45;;;21.23;;
11743;SDS011;5929;51.906;7.674;2022-12-15T05:46:49;35.13;;;20.15;;
11743;SDS011;5929;51.906;7.674;2022-12-15T05:49:16;39.20;;;21.73;;
11743;SDS011;5929;51.906;7.674;2022-12-15T05:51:45;37.58;;;21.95;;
11743;SDS011;5929;51.906;7.674;2022-12-15T05:54:13;43.22;;;23.25;;
11743;SDS011;5929;51.906;7.674;2022-12-15T05:56:42;40.28;;;21.35;;
11743;SDS011;5929;51.906;7.674;2022-12-15T05:59:10;39.25;;;21.25;;
11743;SDS011;5929;51.906;7.674;2022-12-15T06:01:38;37.53;;;20.50;;
11743;SDS011;5929;51.906;7.674;2022-12-15T06:04:04;38.17;;;20.83;;
11743;SDS011;5929;51.906;7.674;2022-12-15T06:06:32;35.83;;;20.50;;
11743;SDS011;5929;51.906;7.674;2022-12-15T06:09:03;38.30;;;20.50;;
11743;SDS011;5929;51.906;7.674;2022-12-15T06:11:29;40.67;;;21.80;;
11743;SDS011;5929;51.906;7.674;2022-12-15T06:13:56;40.88;;;21.52;;
11743;SDS011;5929;51.906;7.674;2022-12-15T06:16:24;41.30;;;21.48;;
11743;SDS011;5929;51.906;7.674;2022-12-15T06:18:54;44.30;;;22.90;;
11743;SDS011;5929;51.906;7.674;2022-12-15T06:21:25;41.47;;;23.17;;
11743;SDS011;5929;51.906;7.674;2022-12-15T06:23:54;38.13;;;21.15;;
11743;SDS011;5929;51.906;7.674;2022-12-15T06:26:23;37.40;;;20.60;;
11743;SDS011;5929;51.906;7.674;2022-12-15T06:28:53;43.60;;;23.23;;
11743;SDS011;5929;51.906;7.674;2022-12-15T06:31:23;37.80;;;22.05;;
11743;SDS011;5929;51.906;7.674;2022-12-15T06:33:50;42.92;;;24.55;;
11743;SDS011;5929;51.906;7.674;2022-12-15T06:36:18;51.65;;;24.63;;
11743;SDS011;5929;51.906;7.674;2022-12-15T06:38:44;43.65;;;23.25;;
11743;SDS011;5929;51.906;7.674;2022-12-15T06:41:14;38.45;;;22.17;;
11743;SDS011;5929;51.906;7.674;2022-12-15T06:43:47;36.35;;;22.58;;
11743;SDS011;5929;51.906;7.674;2022-12-15T06:46:14;42.47;;;22.30;;
11743;SDS011;5929;51.906;7.674;2022-12-15T06:48:41;39.55;;;22.83;;
11743;SDS011;5929;51.906;7.674;2022-12-15T06:51:09;39.65;;;22.65;;
11743;SDS011;5929;51.906;7.674;2022-12-15T06:53:37;40.97;;;20.65;;
11743;SDS011;5929;51.906;7.674;2022-12-15T06:56:06;37.75;;;21.40;;
11743;SDS011;5929;51.906;7.674;2022-12-15T06:58:38;44.85;;;23.65;;
11743;SDS011;5929;51.906;7.674;2022-12-15T07:01:07;36.75;;;22.08;;
11743;SDS011;5929;51.906;7.674;2022-12-15T07:03:34;39.85;;;21.90;;
11743;SDS011;5929;51.906;7.674;2022-12-15T07:06:02;39.63;;;22.65;;
11743;SDS011;5929;51.906;7.674;2022-12-15T07:08:31;38.63;;;22.23;;
11743;SDS011;5929;51.906;7.674;2022-12-15T07:10:58;40.15;;;22.90;;
11743;SDS011;5929;51.906;7.674;2022-12-15T07:13:27;42.28;;;22.00;;
11743;SDS011;5929;51.906;7.674;2022-12-15T07:15:57;41.85;;;23.02;;
11743;SDS011;5929;51.906;7.674;2022-12-15T07:18:25;37.70;;;22.25;;
11743;SDS011;5929;51.906;7.674;2022-12-15T07:20:53;44.17;;;23.00;;
11743;SDS011;5929;51.906;7.674;2022-12-15T07:23:20;43.25;;;23.85;;
11743;SDS011;5929;51.906;7.674;2022-12-15T07:25:47;40.63;;;22.23;;
11743;SDS011;5929;51.906;7.674;2022-12-15T07:28:14;37.47;;;21.80;;
11743;SDS011;5929;51.906;7.674;2022-12-15T07:30:41;37.45;;;22.23;;
11743;SDS011;5929;51.906;7.674;2022-12-15T07:33:07;43.40;;;23.15;;
11743;SDS011;5929;51.906;7.674;2022-12-15T07:35:36;46.88;;;25.08;;
11743;SDS011;5929;51.906;7.674;2022-12-15T07:38:04;41.22;;;23.33;;
11743;SDS011;5929;51.906;7.674;2022-12-15T07:40:32;38.92;;;22.58;;
11743;SDS011;5929;51.906;7.674;2022-12-15T07:42:58;42.50;;;22.23;;
11743;SDS011;5929;51.906;7.674;2022-12-15T07:45:26;38.88;;;22.00;;
11743;SDS011;5929;51.906;7.674;2022-12-15T07:47:52;38.60;;;22.23;;
11743;SDS011;5929;51.906;7.674;2022-12-15T07:50:19;35.63;;;21.90;;
11743;SDS011;5929;51.906;7.674;2022-12-15T07:52:49;36.45;;;22.08;;
11743;SDS011;5929;51.906;7.674;2022-12-15T07:55:16;38.35;;;22.20;;
11743;SDS011;5929;51.906;7.674;2022-12-15T07:57:43;42.58;;;22.10;;
11743;SDS011;5929;51.906;7.674;2022-12-15T08:00:10;38.92;;;22.67;;
11743;SDS011;5929;51.906;7.674;2022-12-15T08:02:38;39.03;;;21.70;;
11743;SDS011;5929;51.906;7.674;2022-12-15T08:05:06;37.70;;;22.88;;
11743;SDS011;5929;51.906;7.674;2022-12-15T08:07:33;38.03;;;21.05;;
11743;SDS011;5929;51.906;7.674;2022-12-15T08:10:02;37.72;;;21.88;;
11743;SDS011;5929;51.906;7.674;2022-12-15T08:12:29;42.45;;;23.10;;
11743;SDS011;5929;51.906;7.674;2022-12-15T08:14:56;38.15;;;22.23;;
11743;SDS011;5929;51.906;7.674;2022-12-15T08:17:23;44.85;;;21.50;;
11743;SDS011;5929;51.906;7.674;2022-12-15T08:19:50;40.50;;;22.70;;
11743;SDS011;5929;51.906;7.674;2022-12-15T08:22:17;37.42;;;22.27;;
11743;SDS011;5929;51.906;7.674;2022-12-15T08:24:44;44.30;;;23.48;;
11743;SDS011;5929;51.906;7.674;2022-12-15T08:27:13;46.42;;;23.60;;
11743;SDS011;5929;51.906;7.674;2022-12-15T08:29:40;37.28;;;21.70;;
11743;SDS011;5929;51.906;7.674;2022-12-15T08:32:07;38.78;;;23.00;;
11743;SDS011;5929;51.906;7.674;2022-12-15T08:34:33;37.50;;;21.67;;
11743;SDS011;5929;51.906;7.674;2022-12-15T08:37:00;41.92;;;22.67;;
11743;SDS011;5929;51.906;7.674;2022-12-15T08:39:29;42.83;;;23.67;;
11743;SDS011;5929;51.906;7.674;2022-12-15T08:41:56;39.78;;;23.25;;
11743;SDS011;5929;51.906;7.674;2022-12-15T08:44:24;42.17;;;24.30;;
11743;SDS011;5929;51.906;7.674;2022-12-15T08:46:51;43.92;;;24.65;;
11743;SDS011;5929;51.906;7.674;2022-12-15T08:49:18;42.60;;;23.33;;
11743;SDS011;5929;51.906;7.674;2022-12-15T08:51:45;43.35;;;23.75;;
11743;SDS011;5929;51.906;7.674;2022-12-15T08:54:12;38.47;;;23.63;;
11743;SDS011;5929;51.906;7.674;2022-12-15T08:56:41;35.85;;;22.95;;
11743;SDS011;5929;51.906;7.674;2022-12-15T08:59:08;40.38;;;24.23;;
11743;SDS011;5929;51.906;7.674;2022-12-15T09:01:36;38.88;;;22.88;;
11743;SDS011;5929;51.906;7.674;2022-12-15T09:04:03;39.30;;;23.88;;
11743;SDS011;5929;51.906;7.674;2022-12-15T09:06:31;39.08;;;23.75;;
11743;SDS011;5929;51.906;7.674;2022-12-15T09:08:59;39.13;;;22.95;;
11743;SDS011;5929;51.906;7.674;2022-12-15T09:11:28;38.58;;;23.48;;
11743;SDS011;5929;51.906;7.674;2022-12-15T09:13:56;38.88;;;22.98;;
11743;SDS011;5929;51.906;7.674;2022-12-15T09:16:23;38.90;;;23.15;;
11743;SDS011;5929;51.906;7.674;2022-12-15T09:18:53;36.90;;;22.20;;
11743;SDS011;5929;51.906;7.674;2022-12-15T09:21:22;41.92;;;23.35;;
11743;SDS011;5929;51.906;7.674;2022-12-15T09:23:51;42.30;;;24.85;;
11743;SDS011;5929;51.906;7.674;2022-12-15T09:26:20;37.83;;;23.48;;
11743;SDS011;5929;51.906;7.674;2022-12-15T09:28:48;42.03;;;23.88;;
11743;SDS011;5929;51.906;7.674;2022-12-15T09:31:16;43.20;;;25.85;;
11743;SDS011;5929;51.906;7.674;2022-12-15T09:33:46;46.10;;;25.23;;
11743;SDS011;5929;51.906;7.674;2022-12-15T09:36:17;45.28;;;25.27;;
11743;SDS011;5929;51.906;7.674;2022-12-15T09:38:44;45.22;;;25.60;;
11743;SDS011;5929;51.906;7.674;2022-12-15T09:41:16;44.83;;;27.00;;
11743;SDS011;5929;51.906;7.674;2022-12-15T09:43:49;44.22;;;25.30;;
11743;SDS011;5929;51.906;7.674;2022-12-15T09:46:22;42.88;;;25.85;;
11743;SDS011;5929;51.906;7.674;2022-12-15T09:48:52;43.45;;;25.40;;
11743;SDS011;5929;51.906;7.674;2022-12-15T09:51:24;41.08;;;24.10;;
11743;SDS011;5929;51.906;7.674;2022-12-15T09:53:58;48.03;;;26.52;;
11743;SDS011;5929;51.906;7.674;2022-12-15T09:56:28;44.63;;;25.73;;
11743;SDS011;5929;51.906;7.674;2022-12-15T09:59:04;42.65;;;26.00;;
11743;SDS011;5929;51.906;7.674;2022-12-15T10:01:43;44.10;;;27.27;;
11743;SDS011;5929;51.906;7.674;2022-12-15T10:04:18;41.10;;;24.45;;
11743;SDS011;5929;51.906;7.674;2022-12-15T10:06:53;39.70;;;26.15;;
11743;SDS011;5929;51.906;7.674;2022-12-15T10:09:27;38.95;;;25.63;;
11743;SDS011;5929;51.906;7.674;2022-12-15T10:11:56;41.60;;;25.95;;
11743;SDS011;5929;51.906;7.674;2022-12-15T10:14:27;49.17;;;27.73;;
11743;SDS011;5929;51.906;7.674;2022-12-15T10:17:01;40.90;;;26.10;;
11743;SDS011;5929;51.906;7.674;2022-12-15T10:19:39;43.63;;;27.02;;
11743;SDS011;5929;51.906;7.674;2022-12-15T10:22:11;45.85;;;27.23;;
11743;SDS011;5929;51.906;7.674;2022-12-15T10:24:47;42.22;;;25.00;;
11743;SDS011;5929;51.906;7.674;2022-12-15T10:27:19;45.47;;;26.02;;
11743;SDS011;5929;51.906;7.674;2022-12-15T10:29:55;40.60;;;25.38;;
11743;SDS011;5929;51.906;7.674;2022-12-15T10:32:28;45.60;;;27.13;;
11743;SDS011;5929;51.906;7.674;2022-12-15T10:35:00;45.58;;;27.73;;
11743;SDS011;5929;51.906;7.674;2022-12-15T10:37:28;38.97;;;25.45;;
11743;SDS011;5929;51.906;7.674;2022-12-15T10:39:55;42.03;;;24.95;;
11743;SDS011;5929;51.906;7.674;2022-12-15T10:42:22;42.00;;;25.95;;
11743;SDS011;5929;51.906;7.674;2022-12-15T10:44:51;40.83;;;25.52;;
11743;SDS011;5929;51.906;7.674;2022-12-15T10:47:20;39.03;;;24.40;;
11743;SDS011;5929;51.906;7.674;2022-12-15T10:49:50;39.53;;;23.27;;
11743;SDS011;5929;51.906;7.674;2022-12-15T10:52:18;33.95;;;22.17;;
11743;SDS011;5929;51.906;7.674;2022-12-15T10:54:53;34.15;;;20.63;;
11743;SDS011;5929;51.906;7.674;2022-12-15T10:57:22;33.60;;;19.42;;
11743;SDS011;5929;51.906;7.674;2022-12-15T10:59:53;30.75;;;19.17;;
11743;SDS011;5929;51.906;7.674;2022-12-15T11:02:27;31.10;;;18.67;;
11743;SDS011;5929;51.906;7.674;2022-12-15T11:04:59;30.30;;;18.05;;
11743;SDS011;5929;51.906;7.674;2022-12-15T11:07:30;27.73;;;18.40;;
11743;SDS011;5929;51.906;7.674;2022-12-15T11:10:08;31.55;;;17.98;;
11743;SDS011;5929;51.906;7.674;2022-12-15T11:12:44;27.73;;;17.73;;
11743;SDS011;5929;51.906;7.674;2022-12-15T11:18:20;26.02;;;17.27;;
11743;SDS011;5929;51.906;7.674;2022-12-15T11:20:53;27.25;;;18.35;;
11743;SDS011;5929;51.906;7.674;2022-12-15T11:23:27;27.08;;;17.98;;
11743;SDS011;5929;51.906;7.674;2022-12-15T11:26:02;27.80;;;18.35;;
11743;SDS011;5929;51.906;7.674;2022-12-15T11:28:38;28.42;;;18.08;;
11743;SDS011;5929;51.906;7.674;2022-12-15T11:31:11;31.33;;;19.40;;
11743;SDS011;5929;51.906;7.674;2022-12-15T11:33:45;28.30;;;18.05;;
11743;SDS011;5929;51.906;7.674;2022-12-15T11:36:13;27.83;;;17.73;;
11743;SDS011;5929;51.906;7.674;2022-12-15T11:38:51;29.23;;;18.13;;
11743;SDS011;5929;51.906;7.674;2022-12-15T11:41:29;28.27;;;18.23;;
11743;SDS011;5929;51.906;7.674;2022-12-15T11:44:10;28.98;;;18.80;;
11743;SDS011;5929;51.906;7.674;2022-12-15T11:46:49;27.27;;;18.73;;
11743;SDS011;5929;51.906;7.674;2022-12-15T11:49:27;32.42;;;19.75;;
11743;SDS011;5929;51.906;7.674;2022-12-15T11:52:09;29.58;;;19.75;;
11743;SDS011;5929;51.906;7.674;2022-12-15T11:54:43;32.30;;;19.65;;
11743;SDS011;5929;51.906;7.674;2022-12-15T11:57:20;27.63;;;18.55;;
11743;SDS011;5929;51.906;7.674;2022-12-15T12:00:01;27.67;;;18.63;;
11743;SDS011;5929;51.906;7.674;2022-12-15T12:02:37;33.85;;;19.67;;
11743;SDS011;5929;51.906;7.674;2022-12-15T12:05:28;33.80;;;19.73;;
11743;SDS011;5929;51.906;7.674;2022-12-15T12:08:05;30.05;;;19.60;;
11743;SDS011;5929;51.906;7.674;2022-12-15T12:10:44;32.03;;;20.40;;
11743;SDS011;5929;51.906;7.674;2022-12-15T12:13:20;31.00;;;19.38;;
11743;SDS011;5929;51.906;7.674;2022-12-15T12:15:56;32.22;;;19.67;;
11743;SDS011;5929;51.906;7.674;2022-12-15T12:18:31;33.35;;;19.95;;
11743;SDS011;5929;51.906;7.674;2022-12-15T12:21:02;33.00;;;19.77;;
11743;SDS011;5929;51.906;7.674;2022-12-15T12:23:36;34.17;;;20.77;;
11743;SDS011;5929;51.906;7.674;2022-12-15T12:26:06;33.25;;;20.55;;
11743;SDS011;5929;51.906;7.674;2022-12-15T12:28:44;34.35;;;20.58;;
11743;SDS011;5929;51.906;7.674;2022-12-15T12:31:16;30.23;;;19.90;;
11743;SDS011;5929;51.906;7.674;2022-12-15T12:33:52;32.13;;;20.63;;
11743;SDS011;5929;51.906;7.674;2022-12-15T12:36:23;32.83;;;20.42;;
11743;SDS011;5929;51.906;7.674;2022-12-15T12:38:51;34.20;;;21.13;;
11743;SDS011;5929;51.906;7.674;2022-12-15T12:41:22;34.00;;;20.55;;
11743;SDS011;5929;51.906;7.674;2022-12-15T12:44:07;33.22;;;21.33;;
11743;SDS011;5929;51.906;7.674;2022-12-15T12:46:39;31.10;;;19.80;;
11743;SDS011;5929;51.906;7.674;2022-12-15T12:49:11;35.95;;;22.27;;
11743;SDS011;5929;51.906;7.674;2022-12-15T12:51:42;33.50;;;20.60;;
11743;SDS011;5929;51.906;7.674;2022-12-15T12:59:59;30.95;;;20.60;;
11743;SDS011;5929;51.906;7.674;2022-12-15T13:05:40;33.20;;;20.83;;
11743;SDS011;5929;51.906;7.674;2022-12-15T13:08:19;32.08;;;21.00;;
11743;SDS011;5929;51.906;7.674;2022-12-15T13:14:12;31.20;;;20.75;;
11743;SDS011;5929;51.906;7.674;2022-12-15T13:16:41;30.92;;;19.90;;
11743;SDS011;5929;51.906;7.674;2022-12-15T13:19:10;28.35;;;18.98;;
11743;SDS011;5929;51.906;7.674;2022-12-15T13:21:45;31.15;;;19.13;;
11743;SDS011;5929;51.906;7.674;2022-12-15T13:24:18;29.33;;;18.95;;
11743;SDS011;5929;51.906;7.674;2022-12-15T13:27:01;29.65;;;19.67;;
11743;SDS011;5929;51.906;7.674;2022-12-15T13:29:30;31.50;;;20.40;;
11743;SDS011;5929;51.906;7.674;2022-12-15T13:32:00;34.28;;;21.48;;
11743;SDS011;5929;51.906;7.674;2022-12-15T13:34:28;32.35;;;20.73;;
11743;SDS011;5929;51.906;7.674;2022-12-15T13:37:01;39.95;;;23.05;;
11743;SDS011;5929;51.906;7.674;2022-12-15T13:39:32;39.47;;;22.45;;
11743;SDS011;5929;51.906;7.674;2022-12-15T13:42:30;36.95;;;22.52;;
11743;SDS011;5929;51.906;7.674;2022-12-15T13:45:09;38.30;;;23.25;;
11743;SDS011;5929;51.906;7.674;2022-12-15T13:47:56;35.55;;;22.45;;
11743;SDS011;5929;51.906;7.674;2022-12-15T13:50:32;41.15;;;23.17;;
11743;SDS011;5929;51.906;7.674;2022-12-15T13:53:07;39.20;;;23.98;;
11743;SDS011;5929;51.906;7.674;2022-12-15T13:55:47;32.97;;;23.13;;
11743;SDS011;5929;51.906;7.674;2022-12-15T13:58:19;39.63;;;23.50;;
11743;SDS011;5929;51.906;7.674;2022-12-15T14:00:48;41.17;;;25.75;;
11743;SDS011;5929;51.906;7.674;2022-12-15T14:03:18;37.00;;;23.23;;
11743;SDS011;5929;51.906;7.674;2022-12-15T14:05:49;37.35;;;24.38;;
11743;SDS011;5929;51.906;7.674;2022-12-15T14:08:18;38.72;;;23.42;;
11743;SDS011;5929;51.906;7.674;2022-12-15T14:10:47;37.53;;;22.52;;
11743;SDS011;5929;51.906;7.674;2022-12-15T14:13:18;43.13;;;24.23;;
11743;SDS011;5929;51.906;7.674;2022-12-15T14:15:48;38.53;;;23.65;;
11743;SDS011;5929;51.906;7.674;2022-12-15T14:18:23;36.20;;;23.33;;
11743;SDS011;5929;51.906;7.674;2022-12-15T14:20:53;37.83;;;23.95;;
11743;SDS011;5929;51.906;7.674;2022-12-15T14:23:21;41.33;;;25.52;;
11743;SDS011;5929;51.906;7.674;2022-12-15T14:25:53;40.75;;;25.10;;
11743;SDS011;5929;51.906;7.674;2022-12-15T14:28:26;39.75;;;25.33;;
11743;SDS011;5929;51.906;7.674;2022-12-15T14:30:59;42.10;;;25.55;;
11743;SDS011;5929;51.906;7.674;2022-12-15T14:33:31;40.13;;;25.30;;
11743;SDS011;5929;51.906;7.674;2022-12-15T14:36:01;41.70;;;26.10;;
11743;SDS011;5929;51.906;7.674;2022-12-15T14:38:35;44.75;;;25.27;;
11743;SDS011;5929;51.906;7.674;2022-12-15T14:41:08;44.05;;;26.40;;
11743;SDS011;5929;51.906;7.674;2022-12-15T14:43:45;44.00;;;26.52;;
11743;SDS011;5929;51.906;7.674;2022-12-15T14:46:14;41.78;;;26.13;;
11743;SDS011;5929;51.906;7.674;2022-12-15T14:48:48;42.58;;;27.27;;
11743;SDS011;5929;51.906;7.674;2022-12-15T14:51:17;45.08;;;27.15;;
11743;SDS011;5929;51.906;7.674;2022-12-15T14:53:46;40.47;;;25.67;;
11743;SDS011;5929;51.906;7.674;2022-12-15T14:56:24;44.47;;;27.85;;
11743;SDS011;5929;51.906;7.674;2022-12-15T14:58:58;42.97;;;25.88;;
11743;SDS011;5929;51.906;7.674;2022-12-15T15:01:28;48.30;;;28.27;;
11743;SDS011;5929;51.906;7.674;2022-12-15T15:04:01;54.20;;;30.98;;
11743;SDS011;5929;51.906;7.674;2022-12-15T15:06:30;41.00;;;25.98;;
11743;SDS011;5929;51.906;7.674;2022-12-15T15:09:18;44.22;;;28.48;;
11743;SDS011;5929;51.906;7.674;2022-12-15T15:11:50;48.90;;;29.15;;
11743;SDS011;5929;51.906;7.674;2022-12-15T15:14:20;46.47;;;29.38;;
11743;SDS011;5929;51.906;7.674;2022-12-15T15:17:01;48.67;;;30.33;;
11743;SDS011;5929;51.906;7.674;2022-12-15T15:19:32;49.72;;;32.15;;
11743;SDS011;5929;51.906;7.674;2022-12-15T15:22:02;49.58;;;30.55;;
11743;SDS011;5929;51.906;7.674;2022-12-15T15:24:29;47.40;;;30.35;;